Illinois — WYQ3689 — position and weather

sailwx.info

Track history (hours):
 
Tides and Currents Weather Stations Pressure Air Temp Water Temp Dewpoint Dewpoint Depression Visibility Wind Speed Wind Dir Waves Ship Positions

Illinois

Owner: Great Lakes Dredge & Dock Company, OAK BROOK, IL. More information available from US FCC via Universal Licensing System and Coast Guard Vessel Documentation Center.

Last reported at 2016-May-25 16:28 UTC. Time now 2016-May-31 05:52 UTC.
Position N 36°50' W 076°16'.

Length 69 m.

Type: Other ship. MMSI: 366796250.

Date/timePositionNaut miles runAvg speedWind from/ knotsBaromVisibWave heightAir tempDewpointWater temp
2016-May-25 16:28N 36°50' W 076°16'0 0.0
2016-May-25 15:28N 36°50' W 076°16'0 0.0
2016-May-25 14:31N 36°50' W 076°16'0 0.0
2016-May-25 13:31N 36°50' W 076°16'0 0.0
2016-May-25 12:31N 36°50' W 076°16'0 0.0
2016-May-25 11:31N 36°50' W 076°16'0 0.0
2016-May-25 10:31N 36°50' W 076°16'0 0.0
2016-May-25 09:31N 36°50' W 076°16'0 0.0
2016-May-25 08:31N 36°50' W 076°16'0 0.0
2016-May-25 07:31N 36°50' W 076°16'0 0.0
2016-May-25 06:31N 36°50' W 076°16'0 0.0
2016-May-25 05:28N 36°50' W 076°16'0 0.0
2016-May-25 04:31N 36°50' W 076°16'0 0.0
2016-May-25 03:31N 36°50' W 076°16'0 0.0
2016-May-25 02:31N 36°50' W 076°16'0 0.0
2016-May-25 01:31N 36°50' W 076°16'0 0.0
2016-May-25 00:31N 36°50' W 076°16'0 0.0
2016-May-24 23:31N 36°50' W 076°16'0 0.0
2016-May-24 22:31N 36°50' W 076°16'0 0.0
2016-May-24 21:31N 36°50' W 076°16'0 0.0
2016-May-24 20:31N 36°50' W 076°16'0 0.0
2016-May-24 19:32N 36°50' W 076°16'0 0.0
2016-May-24 18:29N 36°50' W 076°16'0 0.0
2016-May-24 17:32N 36°50' W 076°16'0 0.0
2016-May-24 15:22N 36°50' W 076°16'0 0.0
2016-May-24 14:32N 36°50' W 076°16'0 0.0
2016-May-24 13:31N 36°50' W 076°16'0 0.0
2016-May-24 12:32N 36°50' W 076°16'0 0.0
2016-May-24 11:31N 36°50' W 076°16'0 0.0
2016-May-24 10:31N 36°50' W 076°16'0 0.0
2016-May-24 09:31N 36°50' W 076°16'0 0.0
2016-May-24 08:31N 36°50' W 076°16'0 0.0
2016-May-24 07:31N 36°50' W 076°16'0 0.0
2016-May-24 06:31N 36°50' W 076°16'0 0.0
2016-May-24 05:32N 36°50' W 076°16'0 0.0
2016-May-24 04:31N 36°50' W 076°16'0 0.0
2016-May-24 02:26N 36°50' W 076°16'0 0.0
2016-May-24 00:25N 36°50' W 076°16'0 0.0
2016-May-23 23:28N 36°50' W 076°16'0 0.0
2016-May-23 22:25N 36°50' W 076°16'0 0.0
2016-May-23 21:32N 36°50' W 076°16'0 0.0
2016-May-23 20:28N 36°50' W 076°16'0 0.0
2016-May-23 19:31N 36°50' W 076°16'0 0.0
2016-May-23 18:31N 36°50' W 076°16'0 0.0
2016-May-23 17:32N 36°50' W 076°16'0 0.0
2016-May-23 14:16N 36°50' W 076°16'0 0.0
2016-May-23 13:31N 36°50' W 076°16'0 0.0
2016-May-23 12:31N 36°50' W 076°16'0 0.0
2016-May-23 11:31N 36°50' W 076°16'0 0.0
2016-May-23 10:31N 36°50' W 076°16'0 0.0
2016-May-23 09:31N 36°50' W 076°16'0 0.0
2016-May-23 08:31N 36°50' W 076°16'0 0.0
2016-May-23 07:31N 36°50' W 076°16'0 0.0
2016-May-23 06:31N 36°50' W 076°16'0 0.0
2016-May-23 05:31N 36°50' W 076°16'0 0.0
2016-May-22 23:16N 36°50' W 076°16'0 0.0
2016-May-22 22:31N 36°50' W 076°16'0 0.0
2016-May-22 19:31N 36°50' W 076°16'0 0.0
2016-May-22 14:19N 36°50' W 076°16'0 0.1
2016-May-22 10:29N 36°50' W 076°16'3 2.8
2016-May-22 09:33N 36°52' W 076°19'13 2.1
2016-May-22 03:15N 36°58' W 076°05'3 4.1
2016-May-22 02:33N 36°57' W 076°01'61 3.8
2016-May-21 10:33N 37°48' W 075°19'4 4.5
2016-May-21 09:33N 37°52' W 075°17'5 4.5
2016-May-21 08:33N 37°56' W 075°14'5 4.7
2016-May-21 07:33N 37°60' W 075°11'5 4.7
2016-May-21 06:33N 38°04' W 075°10'5 4.8
2016-May-21 05:33N 38°09' W 075°07'5 4.7
2016-May-21 04:34N 38°13' W 075°05'5 4.7
2016-May-21 03:34N 38°17' W 075°02'5 4.5
2016-May-21 02:33N 38°22' W 074°60'4 4.3
2016-May-21 01:33N 38°26' W 074°59'4 3.9
2016-May-21 00:33N 38°30' W 074°58'4 4.0
2016-May-20 23:33N 38°34' W 074°58'4 3.6
2016-May-20 22:34N 38°37' W 074°58'4 3.8
2016-May-20 21:34N 38°41' W 074°58'5 4.4
2016-May-20 20:29N 38°45' W 074°55'35 4.4
2016-May-20 12:33N 39°15' W 074°32'3 3.3
2016-May-20 11:33N 39°18' W 074°32'0 0.1
2016-May-20 07:33N 39°19' W 074°32'0 0.0
2016-May-20 06:30N 39°19' W 074°32'0 0.0
2016-May-20 02:06N 39°19' W 074°32'0 0.0
2016-May-20 01:33N 39°19' W 074°32'0 0.0
2016-May-19 10:09N 39°19' W 074°32'0 0.0
2016-May-19 09:27N 39°19' W 074°32'0 0.0
2016-May-19 08:30N 39°19' W 074°32'0 0.0
2016-May-19 07:09N 39°19' W 074°32'0 0.0
2016-May-19 06:15N 39°19' W 074°32'0 0.0
2016-May-19 04:30N 39°19' W 074°32'0 0.0
2016-May-18 12:32N 39°19' W 074°32'0 0.0
2016-May-18 10:24N 39°19' W 074°32'8 0.4
2016-May-17 15:06N 39°12' W 074°38'0 0.0
2016-May-17 14:33N 39°12' W 074°38'0 0.0
2016-May-17 12:24N 39°12' W 074°38'0 0.0
2016-May-17 11:33N 39°12' W 074°38'0 0.0
2016-May-17 08:33N 39°12' W 074°38'0 0.0
2016-May-17 06:32N 39°12' W 074°38'0 0.0
2016-May-17 05:24N 39°12' W 074°38'0 0.0
2016-May-17 04:30N 39°12' W 074°38'0 0.0
2016-May-17 02:15N 39°12' W 074°38'0 0.0
2016-May-17 01:33N 39°12' W 074°38'  
Track history (hours):
 
Tides and Currents Weather Stations Pressure Air Temp Water Temp Dewpoint Dewpoint Depression Visibility Wind Speed Wind Dir Waves Ship Positions

Illinois

Owner: Great Lakes Dredge & Dock Company, OAK BROOK, IL. More information available from US FCC via Universal Licensing System and Coast Guard Vessel Documentation Center.

Last reported at 2016-May-25 16:28 UTC. Time now 2016-May-31 05:52 UTC.
Position N 36°50' W 076°16'.

Length 69 m.

Type: Other ship. MMSI: 366796250.

Date/timePositionNaut miles runAvg speedWind from/ knotsBaromVisibWave heightAir tempDewpointWater temp
2016-May-25 16:28N 36°50' W 076°16'0 0.0
2016-May-25 15:28N 36°50' W 076°16'0 0.0
2016-May-25 14:31N 36°50' W 076°16'0 0.0
2016-May-25 13:31N 36°50' W 076°16'0 0.0
2016-May-25 12:31N 36°50' W 076°16'0 0.0
2016-May-25 11:31N 36°50' W 076°16'0 0.0
2016-May-25 10:31N 36°50' W 076°16'0 0.0
2016-May-25 09:31N 36°50' W 076°16'0 0.0
2016-May-25 08:31N 36°50' W 076°16'0 0.0
2016-May-25 07:31N 36°50' W 076°16'0 0.0
2016-May-25 06:31N 36°50' W 076°16'0 0.0
2016-May-25 05:28N 36°50' W 076°16'0 0.0
2016-May-25 04:31N 36°50' W 076°16'0 0.0
2016-May-25 03:31N 36°50' W 076°16'0 0.0
2016-May-25 02:31N 36°50' W 076°16'0 0.0
2016-May-25 01:31N 36°50' W 076°16'0 0.0
2016-May-25 00:31N 36°50' W 076°16'0 0.0
2016-May-24 23:31N 36°50' W 076°16'0 0.0
2016-May-24 22:31N 36°50' W 076°16'0 0.0
2016-May-24 21:31N 36°50' W 076°16'0 0.0
2016-May-24 20:31N 36°50' W 076°16'0 0.0
2016-May-24 19:32N 36°50' W 076°16'0 0.0
2016-May-24 18:29N 36°50' W 076°16'0 0.0
2016-May-24 17:32N 36°50' W 076°16'0 0.0
2016-May-24 15:22N 36°50' W 076°16'0 0.0
2016-May-24 14:32N 36°50' W 076°16'0 0.0
2016-May-24 13:31N 36°50' W 076°16'0 0.0
2016-May-24 12:32N 36°50' W 076°16'0 0.0
2016-May-24 11:31N 36°50' W 076°16'0 0.0
2016-May-24 10:31N 36°50' W 076°16'0 0.0
2016-May-24 09:31N 36°50' W 076°16'0 0.0
2016-May-24 08:31N 36°50' W 076°16'0 0.0
2016-May-24 07:31N 36°50' W 076°16'0 0.0
2016-May-24 06:31N 36°50' W 076°16'0 0.0
2016-May-24 05:32N 36°50' W 076°16'0 0.0
2016-May-24 04:31N 36°50' W 076°16'0 0.0
2016-May-24 02:26N 36°50' W 076°16'0 0.0
2016-May-24 00:25N 36°50' W 076°16'0 0.0
2016-May-23 23:28N 36°50' W 076°16'0 0.0
2016-May-23 22:25N 36°50' W 076°16'0 0.0
2016-May-23 21:32N 36°50' W 076°16'0 0.0
2016-May-23 20:28N 36°50' W 076°16'0 0.0
2016-May-23 19:31N 36°50' W 076°16'0 0.0
2016-May-23 18:31N 36°50' W 076°16'0 0.0
2016-May-23 17:32N 36°50' W 076°16'0 0.0
2016-May-23 14:16N 36°50' W 076°16'0 0.0
2016-May-23 13:31N 36°50' W 076°16'0 0.0
2016-May-23 12:31N 36°50' W 076°16'0 0.0
2016-May-23 11:31N 36°50' W 076°16'0 0.0
2016-May-23 10:31N 36°50' W 076°16'0 0.0
2016-May-23 09:31N 36°50' W 076°16'0 0.0
2016-May-23 08:31N 36°50' W 076°16'0 0.0
2016-May-23 07:31N 36°50' W 076°16'0 0.0
2016-May-23 06:31N 36°50' W 076°16'0 0.0
2016-May-23 05:31N 36°50' W 076°16'0 0.0
2016-May-22 23:16N 36°50' W 076°16'0 0.0
2016-May-22 22:31N 36°50' W 076°16'0 0.0
2016-May-22 19:31N 36°50' W 076°16'0 0.0
2016-May-22 14:19N 36°50' W 076°16'0 0.1
2016-May-22 10:29N 36°50' W 076°16'3 2.8
2016-May-22 09:33N 36°52' W 076°19'13 2.1
2016-May-22 03:15N 36°58' W 076°05'3 4.1
2016-May-22 02:33N 36°57' W 076°01'61 3.8
2016-May-21 10:33N 37°48' W 075°19'4 4.5
2016-May-21 09:33N 37°52' W 075°17'5 4.5
2016-May-21 08:33N 37°56' W 075°14'5 4.7
2016-May-21 07:33N 37°60' W 075°11'5 4.7
2016-May-21 06:33N 38°04' W 075°10'5 4.8
2016-May-21 05:33N 38°09' W 075°07'5 4.7
2016-May-21 04:34N 38°13' W 075°05'5 4.7
2016-May-21 03:34N 38°17' W 075°02'5 4.5
2016-May-21 02:33N 38°22' W 074°60'4 4.3
2016-May-21 01:33N 38°26' W 074°59'4 3.9
2016-May-21 00:33N 38°30' W 074°58'4 4.0
2016-May-20 23:33N 38°34' W 074°58'4 3.6
2016-May-20 22:34N 38°37' W 074°58'4 3.8
2016-May-20 21:34N 38°41' W 074°58'5 4.4
2016-May-20 20:29N 38°45' W 074°55'35 4.4
2016-May-20 12:33N 39°15' W 074°32'3 3.3
2016-May-20 11:33N 39°18' W 074°32'0 0.1
2016-May-20 07:33N 39°19' W 074°32'0 0.0
2016-May-20 06:30N 39°19' W 074°32'0 0.0
2016-May-20 02:06N 39°19' W 074°32'0 0.0
2016-May-20 01:33N 39°19' W 074°32'0 0.0
2016-May-19 10:09N 39°19' W 074°32'0 0.0
2016-May-19 09:27N 39°19' W 074°32'0 0.0
2016-May-19 08:30N 39°19' W 074°32'0 0.0
2016-May-19 07:09N 39°19' W 074°32'0 0.0
2016-May-19 06:15N 39°19' W 074°32'0 0.0
2016-May-19 04:30N 39°19' W 074°32'0 0.0
2016-May-18 12:32N 39°19' W 074°32'0 0.0
2016-May-18 10:24N 39°19' W 074°32'8 0.4
2016-May-17 15:06N 39°12' W 074°38'0 0.0
2016-May-17 14:33N 39°12' W 074°38'0 0.0
2016-May-17 12:24N 39°12' W 074°38'0 0.0
2016-May-17 11:33N 39°12' W 074°38'0 0.0
2016-May-17 08:33N 39°12' W 074°38'0 0.0
2016-May-17 06:32N 39°12' W 074°38'0 0.0
2016-May-17 05:24N 39°12' W 074°38'0 0.0
2016-May-17 04:30N 39°12' W 074°38'0 0.0
2016-May-17 02:15N 39°12' W 074°38'0 0.0
2016-May-17 01:33N 39°12' W 074°38'  

Dump ship's entire track history